Hauptseite
METAR-TAF:

METAR-TAF

Flughäfen :

Neuquén, Argentinien

Breite: 38-57S, Länge: 068-08W, Höhe: 270 m

Beobachtung

Neuester Wetterbericht von vor 55 Minuten, um 06:00 UTC
Windstille
Temperatur 15°C
Luftfeuchtigkeit 63%
Luftdruck 1018 hPa
Sichtweite 10 km oder mehr
keine Wolken unter 1500 m und keine Kumulonimbus oder Gewitterwolken

METAR: SAZN 290600Z 00000KT CAVOK 15/08 Q1018

Zeit: 03:55 (06:55 UTC)

Prognose

Neuester Wetterbericht von vor 1 Stunde und 55 Minuten, um 05:00 UTC
Gültige Prognose vom 29 um 06 UTC bis 30 um 06 UTC
Wind 5 kt aus Süd/Südost
Sichtweite 10 km oder mehr
keine Wolken unter 1500 m und keine Kumulonimbus oder Gewitterwolken
Übergehend zu
vom 29 um 14 UTC bis 29 um 16 UTC
Wind 5 kt aus Ost

TAF: SAZN 290500Z 2906/3006 16005KT CAVOK TX24/2919Z TN11/2910Z BECMG 2914/2916 09005KT

Wetterbeobachtungen und Prognosen von mehr als 4000 Flughäfen (METAR und TAF Bericht).

Die verfügbaren Stationen werden durch gelbe und rote Markierungen auf der Karte dargestellt.

Führen Sie die Maus auf sie, um den Namen der Station zu sehen.

Darauf klicken, um die Beobachtung von Wetterbeobachtungen und Prognosen zu sehen.

Um die Karte zu ändern : klicken Sie auf den grünen Tasten mit einem schwarzen Kreuz Zum Vergrößern, auf den grünen Button mit einem Gedankenstrich zu verkleinern, oder auf die grünen Pfeile für benachbarte Karten.


METAR-TAF: